Date,TemperatureHighF,TemperatureAvgF,TemperatureLowF,DewpointHighF,DewpointAvgF,DewpointLowF,HumidityHigh,HumidityAvg,HumidityLow,PressureMaxIn,PressureMinIn,WindSpeedMaxMPH,WindSpeedAvgMPH,GustSpeedMaxMPH,PrecipitationSumIn
2014-1-1,54,38,30,35,28,23,80,68,44,30.38,30.29,17,7,19,0.00
2014-1-2,59,44,32,34,29,27,81,59,36,30.32,30.03,26,11,30,0.00
2014-1-3,48,39,23,34,24,1,85,58,15,30.24,30.00,24,6,31,0.00
2014-1-4,44,28,19,20,16,12,88,65,27,30.53,30.24,18,6,18,0.00
2014-1-5,46,31,22,17,13,10,63,50,23,30.58,30.47,20,6,21,0.00
2014-1-6,45,36,26,14,11,8,59,35,25,30.48,30.19,19,7,21,0.00
2014-1-7,46,40,37,38,29,13,89,66,35,30.19,30.01,26,10,29,0.02
2014-1-8,46,42,37,37,36,34,90,79,64,30.05,29.82,31,11,33,0.03
2014-1-9,45,39,32,34,31,26,84,75,62,30.12,29.90,44,13,52,0.02
2014-1-10,44,42,39,35,30,25,77,65,50,30.14,30.01,37,12,37,0.00
2014-1-11,44,34,30,37,32,29,97,90,66,30.01,29.66,29,12,51,0.22
2014-1-12,39,35,30,35,32,28,95,89,84,30.43,30.00,30,12,33,0.05
2014-1-13,45,38,31,34,32,28,88,77,62,30.67,30.50,25,10,32,0.00
2014-1-14,51,38,29,30,27,24,90,68,34,30.73,30.61,27,12,30,0.00
2014-1-15,56,39,29,28,24,18,82,58,24,30.62,30.50,29,13,32,0.00
2014-1-16,60,41,27,25,21,11,75,49,15,30.56,30.40,24,7,26,0.00
2014-1-17,60,40,29,25,21,19,70,51,22,30.41,30.27,24,9,27,0.00
2014-1-18,60,41,30,28,23,19,71,52,22,30.34,30.19,22,7,24,0.00
2014-1-19,57,42,30,26,24,21,72,50,26,30.29,30.14,26,9,29,0.00
2014-1-20,35,28,0,28,25,0,96,89,69,30.48,30.29,8,2,8,0.00
2014-1-21,55,37,21,33,25,20,97,66,29,30.49,30.32,18,6,22,0.00
2014-1-22,45,34,27,32,28,18,95,79,57,30.38,30.30,14,6,18,0.00
2014-1-23,30,24,23,28,23,21,96,95,94,30.64,30.38,13,3,15,0.00
2014-1-24,34,27,19,30,25,17,96,90,79,30.67,30.57,10,3,13,0.00
2014-1-25,56,38,24,27,23,20,92,58,30,30.58,30.34,23,5,23,0.00
2014-1-26,61,41,27,30,23,18,90,54,19,30.26,30.10,27,8,29,0.00
2014-1-27,28,24,21,28,23,20,97,94,90,30.44,30.25,9,2,10,0.00
2014-1-28,44,37,25,42,36,24,97,94,91,30.44,30.10,23,5,24,0.15
2014-1-29,45,41,37,44,35,27,96,79,56,29.93,29.79,45,11,49,0.05
2014-1-30,41,34,27,25,23,18,82,64,42,29.97,29.86,16,6,19,0.01
2014-1-31,39,33,27,25,23,21,84,67,50,30.16,30.05,15,6,17,0.00
2014-2-1,42,31,23,25,21,15,88,69,34,30.20,30.06,19,7,21,0.00
2014-2-2,39,31,25,27,24,20,94,78,56,30.04,29.91,19,4,23,0.00
2014-2-3,34,28,22,26,21,14,94,77,46,30.13,29.95,24,5,26,0.04
2014-2-4,24,19,12,22,17,10,94,91,84,30.37,30.12,13,5,15,0.00
2014-2-6,6,6,6,4,4,4,88,88,88,29.99,29.98,2,2,5,0.00
2014-2-7,31,23,10,30,22,7,95,93,90,29.99,29.74,13,5,15,0.04
2014-2-8,15,11,8,13,8,6,93,90,89,30.17,29.91,9,2,9,0.00
2014-2-9,45,37,25,37,33,24,97,86,70,30.17,30.07,21,5,21,0.50
2014-2-10,46,36,27,36,31,25,96,82,61,30.25,30.10,30,12,30,0.01
2014-2-11,44,39,35,37,33,28,94,80,64,30.20,29.86,31,10,31,0.46
2014-2-12,45,41,37,42,39,35,95,93,80,29.98,29.82,29,10,34,0.90
2014-2-13,46,42,38,39,33,26,90,71,47,30.13,29.89,30,8,32,0.07
2014-2-14,41,38,35,39,36,34,95,93,90,30.02,29.81,19,8,25,0.65
2014-2-15,53,41,34,45,37,24,97,86,58,29.96,29.51,36,9,42,0.29
2014-2-16,43,36,31,28,25,22,84,65,48,30.07,29.73,33,10,40,0.00
2014-2-17,45,39,35,35,30,24,91,71,54,30.02,29.81,36,10,41,0.02
2014-2-18,46,38,30,38,32,15,95,78,52,30.03,29.76,41,12,48,0.09
2014-2-19,37,31,26,26,22,17,92,70,44,30.27,29.97,28,11,32,0.01
2014-2-20,41,35,30,34,30,25,90,81,64,30.28,30.22,26,12,29,0.00
2014-2-21,47,38,32,32,27,15,90,67,29,30.24,30.14,18,6,20,0.00
2014-2-22,45,34,29,29,24,19,83,67,42,30.15,30.04,20,8,22,0.00
2014-2-23,52,40,31,36,30,22,85,70,30,30.05,29.93,31,12,37,0.00
2014-2-24,53,42,32,44,38,31,97,85,68,30.11,30.00,21,6,23,0.00
2014-2-25,32,28,25,31,27,24,98,97,96,30.23,30.10,11,4,12,0.00
2014-2-26,28,26,24,28,25,23,98,96,95,30.22,29.86,7,2,8,0.00
2014-2-27,39,33,27,39,32,26,99,97,94,29.86,29.78,18,3,18,0.13
2014-2-28,45,34,30,40,33,29,98,95,76,29.78,29.52,15,4,15,0.00
2014-3-1,32,31,30,32,30,29,98,97,95,29.84,29.56,9,2,10,0.11
2014-3-2,47,40,30,44,38,29,99,90,75,29.89,29.74,29,8,31,0.16
2014-3-3,44,40,38,40,37,34,94,89,76,29.98,29.77,31,11,34,0.24
2014-3-4,54,46,36,39,36,33,93,70,46,30.04,29.91,29,8,31,0.00
2014-3-5,55,48,43,47,42,36,92,80,69,29.91,29.55,28,10,30,0.23
2014-3-6,46,41,37,38,35,33,89,80,63,30.15,29.67,42,14,51,0.07
2014-3-7,56,44,35,35,31,25,84,63,32,30.30,30.15,21,8,25,0.00
2014-3-8,61,47,35,45,34,27,81,64,33,30.19,29.96,31,9,31,0.01
2014-3-9,55,48,42,48,44,38,96,86,68,29.97,29.89,28,10,34,0.29
2014-3-10,46,38,30,39,31,23,96,75,45,30.42,29.89,27,7,29,0.08
2014-3-11,50,37,25,31,25,17,87,65,28,30.57,30.42,18,5,24,0.00
2014-3-12,63,43,27,26,22,11,87,51,13,30.49,30.15,23,8,28,0.00
2014-3-13,60,46,31,31,26,15,79,49,22,30.15,30.00,21,9,23,0.00
2014-3-14,52,46,39,39,32,24,84,60,34,30.31,30.02,27,9,31,0.00
2014-3-15,65,48,34,30,26,16,79,47,15,30.37,30.27,28,10,32,0.00
2014-3-16,65,51,38,35,23,9,88,39,12,30.29,29.77,50,14,50,0.01
2014-3-17,42,34,28,35,22,14,90,63,33,30.32,29.81,27,9,33,0.02
2014-3-18,46,34,22,25,21,15,90,61,29,30.34,30.20,17,5,18,0.00
2014-3-19,54,40,28,29,23,20,72,54,29,30.21,30.07,31,10,32,0.00
2014-3-20,44,35,28,28,20,13,84,56,32,30.30,30.11,18,5,24,0.00
2014-3-21,43,33,21,22,19,16,82,57,39,30.30,30.19,18,5,21,0.00
2014-3-22,54,38,22,23,18,13,82,50,21,30.34,30.19,15,5,18,0.00
2014-3-23,58,42,27,26,19,11,71,44,16,30.28,30.19,16,6,19,0.00
2014-3-24,67,48,31,31,23,17,67,42,15,30.23,29.91,22,8,25,0.00
2014-3-25,51,42,34,40,30,24,87,62,41,29.92,29.62,33,9,39,0.05
2014-3-26,46,38,32,39,32,30,93,81,59,29.66,29.53,31,8,37,0.05
2014-3-27,46,37,33,36,32,29,94,82,56,29.87,29.63,29,12,32,0.04
2014-3-28,49,41,36,44,38,33,94,88,74,29.95,29.76,34,10,34,0.27
2014-3-29,48,40,35,37,33,28,94,76,49,29.90,29.80,35,12,41,0.02
2014-3-30,45,37,31,32,28,18,93,74,35,29.99,29.89,25,8,25,0.02
2014-3-31,48,36,28,34,29,23,95,77,39,29.98,29.69,25,5,26,0.01
2014-4-1,35,33,30,33,31,29,97,95,85,29.93,29.69,12,4,12,0.28
2014-4-2,50,38,30,35,30,26,96,76,42,30.06,29.93,15,6,17,0.04
2014-4-3,50,41,31,34,30,22,90,68,33,30.05,29.92,22,8,26,0.00
2014-4-4,51,41,35,33,29,18,84,65,28,29.98,29.87,27,8,32,0.00
2014-4-5,50,42,36,38,35,32,87,75,53,30.13,29.97,25,10,31,0.00
2014-4-6,60,50,42,40,36,26,87,62,29,30.27,30.12,22,8,25,0.00
2014-4-7,73,53,36,39,35,29,89,56,20,30.27,30.08,21,7,22,0.00
2014-4-8,72,55,42,42,35,24,85,52,18,30.13,29.95,24,10,29,0.00
2014-4-9,58,48,38,42,37,31,86,69,40,30.11,30.00,18,6,23,0.00
2014-4-10,63,49,31,34,28,21,92,50,23,30.16,30.04,17,6,18,0.00
2014-4-11,67,51,36,33,28,21,76,44,22,30.07,29.89,17,6,20,0.00
2014-4-12,60,46,32,34,26,10,77,49,14,30.09,29.88,24,6,26,0.00
2014-4-13,57,52,39,28,24,22,61,34,26,30.26,30.09,15,7,19,0.00
2014-4-14,69,56,33,34,26,13,69,35,12,30.19,30.00,21,8,26,0.00
2014-4-15,52,47,41,31,28,24,65,47,35,30.08,30.03,19,8,22,0.00
2014-4-16,57,49,32,36,32,27,85,53,39,30.09,29.98,17,7,19,0.00
2014-4-17,48,46,42,44,36,32,86,68,62,29.91,29.82,28,10,30,0.03
2014-4-18,57,45,31,33,23,9,88,48,20,30.08,29.91,16,5,24,0.00
2014-4-19,58,45,36,35,28,13,76,55,17,30.20,29.84,37,11,42,0.00
2014-4-20,66,49,33,32,29,23,82,51,22,30.27,30.08,20,6,24,0.00
2014-4-21,64,49,40,43,34,29,94,60,33,30.08,29.71,27,6,34,0.09
2014-4-22,47,40,36,38,28,18,93,65,33,29.98,29.74,27,8,28,0.05
2014-4-23,47,40,34,40,35,28,89,81,68,30.00,29.85,33,11,35,0.05
2014-4-24,52,44,39,40,36,29,91,74,45,29.89,29.79,35,12,38,0.08
2014-4-25,44,37,30,37,32,27,96,82,60,29.85,29.76,20,5,27,0.12
2014-4-26,46,38,28,34,25,12,91,63,28,29.86,29.77,26,8,36,0.04
2014-4-27,46,39,34,34,28,20,91,67,37,30.14,29.74,36,11,39,0.03
2014-4-28,58,43,29,31,24,19,83,52,23,30.39,30.14,22,6,23,0.00
2014-4-29,66,50,31,34,30,25,79,48,27,30.51,30.38,18,6,19,0.00
2014-4-30,77,58,37,36,28,10,74,38,8,30.45,30.16,29,7,31,0.00
2014-5-1,82,63,40,38,29,12,66,35,7,30.19,29.95,20,7,20,0.00
2014-5-2,76,62,48,44,38,28,69,46,19,30.02,29.75,20,7,23,0.00
2014-5-3,60,52,45,44,36,30,80,55,38,29.81,29.71,26,9,29,0.00
2014-5-4,54,47,40,44,36,33,87,67,47,29.89,29.74,38,10,38,0.11
2014-5-5,50,42,36,39,34,30,88,74,49,30.01,29.89,24,8,25,0.14
2014-5-6,53,42,31,35,31,28,90,66,41,30.02,29.93,30,8,32,0.00
2014-5-7,61,46,30,36,30,26,90,59,28,30.00,29.86,16,5,18,0.00
2014-5-8,55,48,43,46,40,35,85,74,62,29.88,29.68,25,10,29,0.03
2014-5-9,51,44,36,38,33,28,90,66,42,30.02,29.78,32,11,35,0.03
2014-5-10,50,40,33,35,30,26,94,70,42,30.25,29.99,33,9,34,0.00
2014-5-11,59,46,32,34,31,28,89,58,33,30.31,30.22,19,6,20,0.00
2014-5-12,64,52,36,35,29,22,80,46,21,30.34,30.25,16,6,21,0.00
2014-5-13,73,58,36,34,30,28,75,39,19,30.36,30.24,16,6,21,0.00
2014-5-14,80,64,45,38,33,28,62,35,16,30.30,30.08,18,6,19,0.00
2014-5-15,82,66,49,45,39,34,65,40,18,30.10,29.88,21,7,23,0.00
2014-5-16,70,61,50,43,32,18,53,35,14,29.94,29.87,25,8,28,0.00
2014-5-17,67,54,39,42,35,28,80,52,27,29.95,29.77,22,6,29,0.00
2014-5-18,54,48,41,45,37,33,90,68,47,29.90,29.77,26,8,28,0.12
2014-5-19,59,48,41,45,39,35,91,70,44,29.99,29.89,18,6,22,0.05
2014-5-20,65,53,38,44,38,27,92,60,27,30.03,29.97,25,6,25,0.00
2014-5-21,71,57,38,46,38,28,92,54,21,30.03,29.94,24,7,28,0.00
2014-5-22,77,62,43,47,40,34,81,49,23,30.02,29.88,15,5,17,0.00
2014-5-23,69,59,50,50,46,42,80,64,39,30.02,29.90,17,6,21,0.00
2014-5-24,70,56,40,45,40,34,95,59,29,30.07,29.97,17,5,20,0.00
2014-5-25,74,59,45,44,40,32,84,53,25,30.02,29.85,28,8,30,0.00
2014-5-26,66,56,47,44,38,32,80,54,30,30.04,29.93,20,7,25,0.00
2014-5-27,59,49,39,41,35,30,86,61,34,30.05,29.96,21,6,24,0.00
2014-5-28,53,44,34,38,33,29,88,67,45,30.21,30.03,23,5,28,0.06
2014-5-29,65,51,32,35,30,24,88,51,23,30.23,30.05,16,6,17,0.00
2014-5-30,73,57,39,44,35,28,76,48,19,30.07,29.80,26,6,31,0.00
2014-5-31,69,57,42,44,40,33,87,55,29,29.98,29.88,19,6,21,0.00
2014-6-1,75,60,43,44,40,35,86,53,25,29.98,29.80,17,5,19,0.00
2014-6-2,77,62,46,45,39,30,78,46,19,29.85,29.69,21,6,33,0.00
2014-6-3,71,59,48,45,37,27,82,49,20,29.95,29.76,22,8,24,0.00
2014-6-4,77,59,40,38,30,15,74,40,11,30.01,29.91,25,7,27,0.00
2014-6-5,74,60,44,42,35,29,72,41,22,30.00,29.87,18,6,22,0.00
2014-6-6,74,60,41,38,31,22,77,37,15,29.99,29.91,23,6,23,0.00
2014-6-7,71,60,44,43,37,30,65,44,30,30.06,29.95,19,6,23,0.00
2014-6-8,74,62,43,48,40,34,80,50,25,30.10,29.94,17,5,21,0.00
2014-6-9,75,62,47,47,41,23,85,51,16,29.99,29.85,25,6,26,0.00
2014-6-10,70,58,45,40,36,28,79,47,25,29.97,29.88,29,9,31,0.00
2014-6-11,75,59,37,42,34,29,84,45,19,29.97,29.74,16,5,19,0.00
2014-6-12,66,56,47,44,38,30,77,52,27,29.84,29.67,33,11,38,0.00
2014-6-13,53,47,44,40,38,35,82,70,55,30.07,29.84,19,7,24,0.01
2014-6-14,61,49,37,37,35,30,85,60,33,30.07,29.93,21,6,21,0.00
2014-6-15,58,50,39,40,37,34,84,64,43,29.94,29.77,21,6,25,0.00
2014-6-16,52,45,37,38,33,26,84,64,39,29.98,29.79,24,6,31,0.02
2014-6-17,56,45,33,38,35,30,90,69,46,30.11,29.97,24,7,25,0.00
2014-6-18,70,55,38,44,39,35,89,60,30,30.11,29.93,20,7,21,0.00
2014-6-19,79,63,46,46,40,31,85,50,21,29.97,29.86,23,8,28,0.00
2014-6-20,68,58,48,46,42,36,80,56,32,29.99,29.91,23,7,25,0.00
2014-6-21,70,56,38,43,36,32,91,52,29,30.00,29.91,19,6,21,0.00
2014-6-22,76,62,46,40,32,24,65,37,15,30.01,29.87,18,6,19,0.00
2014-6-23,80,66,53,48,40,31,64,41,21,29.93,29.80,21,6,23,0.00
2014-6-24,70,61,51,49,46,43,89,60,39,29.96,29.91,19,6,25,0.01
2014-6-25,64,55,48,54,49,43,96,80,55,29.94,29.76,15,3,19,0.29
2014-6-26,66,57,52,53,49,44,96,76,46,29.80,29.75,20,6,20,0.02
2014-6-27,66,58,50,53,47,43,91,69,46,29.87,29.73,30,9,32,0.02
2014-6-28,69,58,48,45,42,36,84,58,31,29.97,29.86,20,7,23,0.00
2014-6-29,70,57,40,44,41,35,90,58,29,30.11,29.97,20,6,24,0.00
2014-6-30,79,63,42,45,40,33,88,49,20,30.12,29.95,19,5,19,0.00
2014-7-1,88,72,50,46,42,40,71,38,20,29.96,29.69,18,5,21,0.00
2014-7-2,85,74,64,56,49,44,75,43,25,29.80,29.66,20,6,25,0.00
2014-7-3,82,68,56,56,49,32,89,57,18,29.88,29.75,19,6,22,0.00
2014-7-4,84,66,52,49,43,34,80,48,17,29.90,29.80,19,6,21,0.00
2014-7-5,87,72,55,48,41,22,69,37,13,29.97,29.90,18,8,20,0.00
2014-7-6,86,72,56,52,46,34,67,42,16,30.01,29.92,21,7,23,0.00
2014-7-7,87,73,54,51,48,44,72,44,24,29.98,29.82,16,6,18,0.00
2014-7-8,92,76,61,56,52,49,65,44,25,29.86,29.74,32,5,37,0.00
2014-7-9,88,76,64,60,51,40,77,45,19,29.80,29.68,25,7,27,0.00
2014-7-10,90,74,56,49,39,18,71,36,10,29.78,29.67,24,8,26,0.00
2014-7-11,81,70,57,56,47,36,65,46,21,29.93,29.77,24,5,28,0.00
2014-7-12,91,76,57,55,48,36,80,44,15,30.00,29.90,22,6,22,0.00
2014-7-13,85,76,62,52,45,40,53,34,23,29.95,29.82,24,8,28,0.05
2014-7-14,88,76,56,53,47,43,69,39,22,29.94,29.85,21,7,24,0.00
2014-7-15,90,76,58,50,45,38,70,38,16,29.96,29.83,18,5,22,0.00
2014-7-16,93,78,62,53,47,40,61,36,18,29.88,29.72,20,7,21,0.00
2014-7-17,85,70,60,51,45,37,59,44,23,29.84,29.73,23,8,25,0.00
2014-7-18,86,70,54,47,38,14,58,36,8,29.92,29.83,23,8,26,0.00
2014-7-19,85,71,55,50,45,36,71,44,18,29.95,29.84,21,7,28,0.00
2014-7-20,82,69,58,53,47,29,68,47,25,29.84,29.67,24,9,32,0.00
2014-7-21,79,65,54,45,40,32,62,40,24,29.93,29.76,19,5,21,0.00
2014-7-22,76,66,59,61,54,44,86,67,43,29.94,29.82,21,6,31,0.13
2014-7-23,65,56,45,55,48,35,94,76,53,30.09,29.88,30,8,31,0.06
2014-7-24,68,55,42,45,40,35,78,58,38,30.21,30.08,17,6,20,0.00
2014-7-25,78,62,42,48,41,34,90,54,22,30.11,29.94,17,5,19,0.00
2014-7-26,84,68,50,49,43,35,78,44,21,30.03,29.93,17,6,20,0.00
2014-7-27,85,71,55,47,42,39,59,37,20,30.01,29.93,14,4,15,0.00
2014-7-28,92,74,57,51,45,39,62,39,17,29.99,29.89,19,7,23,0.00
2014-7-29,90,74,60,54,47,36,69,42,15,29.98,29.89,25,6,31,0.00
2014-7-30,91,76,61,52,45,31,61,37,14,29.96,29.87,25,8,34,0.00
2014-7-31,90,78,65,50,44,40,54,32,17,29.93,29.79,22,6,26,0.00
2014-8-1,88,76,62,55,48,43,64,40,21,29.91,29.76,25,6,28,0.01
2014-8-2,87,73,61,60,50,44,74,47,28,29.86,29.76,34,5,42,0.04
2014-8-3,83,71,57,57,51,45,77,52,30,29.92,29.80,19,6,19,0.00
2014-8-4,87,78,69,61,49,42,67,38,25,29.84,29.72,18,7,19,0.00
2014-8-5,84,74,62,61,48,39,77,45,24,29.90,29.79,22,7,22,0.00
2014-8-6,82,65,55,53,45,37,66,48,25,29.99,29.87,18,6,22,0.00
2014-8-7,82,67,55,52,47,34,83,53,22,29.95,29.82,19,6,23,0.00
2014-8-8,79,66,52,46,40,33,67,41,23,29.94,29.87,20,7,21,0.00
2014-8-9,81,66,49,44,39,33,70,40,21,30.01,29.93,17,6,20,0.00
2014-8-10,89,74,56,58,42,32,77,35,20,29.99,29.82,32,7,37,0.06
2014-8-11,91,72,59,58,51,36,80,53,15,29.92,29.75,29,7,41,0.11
2014-8-12,70,63,58,58,53,48,86,71,52,29.88,29.75,29,8,36,0.17
2014-8-13,70,58,52,54,50,43,93,78,43,29.97,29.84,23,6,35,0.36
2014-8-14,66,56,50,56,51,47,94,82,55,29.97,29.92,18,5,18,0.07
2014-8-15,76,63,50,56,51,48,94,68,41,29.99,29.93,17,5,21,0.00
2014-8-16,82,67,53,56,49,39,91,57,27,30.01,29.91,17,6,18,0.00
2014-8-17,83,69,54,53,47,27,76,49,14,29.99,29.85,21,7,24,0.00
2014-8-18,83,75,54,53,48,44,79,40,26,29.89,29.71,18,6,19,0.00
2014-8-19,80,69,59,58,51,44,81,56,29,29.73,29.63,27,8,29,0.00
2014-8-20,73,63,54,52,48,41,84,60,35,29.87,29.72,22,7,27,0.00
2014-8-21,74,61,47,46,40,14,89,53,12,29.94,29.86,20,7,21,0.00
2014-8-22,70,58,46,46,41,38,75,54,35,30.03,29.88,21,6,23,0.00
2014-8-23,71,60,47,49,44,40,85,57,34,30.08,29.97,20,6,23,0.00
2014-8-24,75,61,48,46,42,38,75,52,28,29.97,29.75,25,7,28,0.00
2014-8-25,73,62,51,48,44,40,77,55,34,29.97,29.88,20,6,23,0.00
2014-8-26,80,66,49,45,39,30,72,42,17,30.03,29.92,17,6,19,0.00
2014-8-27,88,71,54,50,45,39,65,42,22,29.99,29.87,20,8,21,0.00
2014-8-28,83,70,57,52,47,38,74,48,21,29.94,29.85,20,6,22,0.00
2014-8-29,80,65,51,49,44,36,79,50,21,29.89,29.76,22,7,25,0.00
2014-8-30,66,59,50,50,46,41,76,63,48,29.92,29.82,24,7,27,0.00
2014-8-31,67,55,44,44,42,40,89,63,39,30.02,29.91,19,5,20,0.00
2014-9-1,76,60,42,48,42,36,87,57,30,30.05,29.89,17,5,17,0.00
2014-9-2,78,61,46,49,43,33,87,56,20,29.89,29.72,24,8,28,0.00
2014-9-3,67,56,36,43,34,27,86,48,26,30.01,29.83,17,5,24,0.00
2014-9-4,69,55,40,42,36,33,82,53,27,30.07,29.96,20,6,22,0.00
2014-9-5,74,61,45,42,37,32,69,43,22,30.10,29.97,18,6,19,0.00
2014-9-6,80,65,44,38,33,30,59,33,17,30.04,29.83,17,5,17,0.00
2014-9-7,81,65,48,40,31,19,56,32,10,29.86,29.75,19,7,19,0.00
2014-9-8,80,64,49,41,33,24,62,34,13,29.83,29.71,23,7,23,0.00
2014-9-9,69,58,48,45,39,32,78,52,27,30.06,29.83,23,6,26,0.00
2014-9-10,70,56,42,42,39,32,83,54,32,30.13,30.02,19,6,24,0.00
2014-9-11,62,52,44,32,27,22,50,38,26,30.24,30.11,24,7,25,0.00
2014-9-12,76,56,34,33,28,20,68,38,19,30.15,29.91,16,6,17,0.00
2014-9-13,73,58,39,33,28,24,56,34,21,30.00,29.85,14,5,16,0.00
2014-9-14,79,62,45,39,32,26,53,33,21,29.92,29.83,19,6,19,0.00
2014-9-15,85,66,47,40,34,30,55,33,17,29.90,29.74,21,7,25,0.00
2014-9-16,84,68,52,41,35,26,52,33,12,29.81,29.69,21,6,27,0.00
2014-9-17,82,67,56,43,38,29,57,37,16,29.75,29.54,19,6,26,0.00
2014-9-18,70,62,55,53,49,43,84,65,44,29.90,29.61,20,7,24,0.02
2014-9-19,76,62,46,52,46,42,94,62,32,30.05,29.90,13,5,16,0.00
2014-9-20,79,65,49,50,46,42,79,53,32,30.02,29.87,14,5,16,0.00
2014-9-21,83,69,52,52,47,42,72,48,29,29.91,29.75,14,4,17,0.00
2014-9-22,80,68,59,54,49,44,77,54,28,29.86,29.76,22,8,25,0.00
2014-9-23,73,65,56,50,46,38,72,51,34,29.82,29.68,22,7,26,0.00
2014-9-24,68,57,49,54,48,38,97,77,34,29.86,29.67,14,4,17,0.46
2014-9-25,59,51,46,49,45,42,94,82,59,29.94,29.78,20,6,24,0.12
2014-9-26,61,51,42,44,41,39,90,70,45,30.03,29.94,17,7,20,0.00
2014-9-27,61,53,47,47,44,42,84,72,53,30.03,29.93,27,8,30,0.01
2014-9-28,64,57,52,47,45,43,78,64,52,29.95,29.87,22,8,25,0.00
2014-9-29,70,56,47,48,44,37,91,67,31,29.93,29.82,23,8,28,0.00
2014-9-30,56,48,38,40,37,34,89,67,44,30.14,29.92,30,8,33,0.00
2014-10-1,64,48,34,39,32,26,94,61,25,30.21,30.13,16,5,19,0.00
2014-10-2,67,52,39,38,32,22,84,52,22,30.28,30.16,22,8,23,0.00
2014-10-3,78,57,39,40,35,31,77,49,18,30.32,30.18,19,6,19,0.00
2014-10-4,80,66,44,39,33,26,69,34,15,30.22,30.07,24,8,27,0.00
2014-10-5,82,64,46,41,37,29,67,41,16,30.09,29.96,20,7,22,0.00
2014-10-6,82,59,49,43,40,38,73,53,21,30.01,29.86,22,9,24,0.00
2014-10-7,81,63,45,43,38,30,74,44,16,29.91,29.80,23,9,25,0.00
2014-10-8,74,58,44,42,37,29,81,50,20,29.95,29.84,21,8,24,0.00
2014-10-9,70,56,42,40,34,28,78,47,23,30.02,29.95,15,6,16,0.00
2014-10-10,72,58,40,42,36,28,74,47,27,30.06,29.99,24,9,25,0.00
2014-10-11,64,56,45,50,40,32,72,56,34,30.17,29.97,30,8,35,0.00
2014-10-12,66,49,36,38,31,12,88,56,12,30.27,30.08,17,6,20,0.00
2014-10-13,79,60,42,31,25,14,54,29,9,30.09,29.72,29,9,30,0.00
2014-10-14,60,53,46,45,36,24,94,57,29,29.78,29.53,15,5,18,0.04
2014-10-15,51,46,42,44,38,33,95,74,53,30.05,29.50,34,10,37,0.12
2014-10-16,63,49,41,38,36,33,81,62,34,30.05,29.87,18,5,20,0.00
2014-10-17,58,50,43,46,41,34,83,69,55,29.93,29.82,25,6,25,0.00
2014-10-18,68,56,48,46,44,41,82,65,42,30.00,29.84,21,7,22,0.00
2014-10-19,71,56,44,43,40,38,84,58,31,29.84,29.70,24,8,33,0.00
2014-10-20,59,50,42,48,41,36,88,72,57,29.86,29.67,22,6,24,0.04
2014-10-21,53,45,39,40,37,35,88,75,56,30.03,29.86,28,8,28,0.01
2014-10-22,58,50,44,47,41,38,92,72,53,29.94,29.72,34,11,35,0.14
2014-10-23,50,48,44,48,44,38,93,85,68,29.99,29.73,27,8,28,0.37
2014-10-24,54,46,43,48,43,41,98,91,81,30.01,29.78,15,3,16,0.13
2014-10-25,60,49,40,45,40,35,98,74,46,29.90,29.50,49,14,57,0.13
2014-10-26,47,41,37,37,34,32,90,78,58,30.16,29.90,28,9,28,0.00
2014-10-27,52,42,34,37,34,31,91,73,47,30.19,30.07,21,6,23,0.00
2014-10-28,57,48,42,47,40,34,93,73,53,30.09,29.96,32,10,32,0.02
2014-10-29,55,50,46,47,44,38,93,77,64,30.15,30.04,24,6,24,0.01
2014-10-30,64,53,47,50,47,44,96,83,57,30.04,29.72,13,4,14,0.14
2014-10-31,48,44,40,47,40,36,96,87,74,29.79,29.65,20,5,22,0.28
2014-11-1,46,39,32,36,32,28,93,77,50,30.06,29.73,27,6,28,0.00
2014-11-2,51,39,31,38,33,28,93,81,55,30.23,30.06,21,6,21,0.01
2014-11-3,53,46,41,43,39,36,85,78,69,30.24,30.16,24,10,27,0.00
2014-11-4,53,48,44,48,44,39,92,85,74,30.29,30.11,29,11,32,0.00
2014-11-5,62,53,45,51,46,42,90,78,66,30.29,30.03,28,9,29,0.00
2014-11-6,62,53,44,46,42,36,76,67,48,30.22,29.94,31,10,35,0.00
2014-11-7,54,43,34,39,35,31,92,74,44,30.37,30.21,13,4,14,0.00
2014-11-8,66,49,36,46,40,32,89,72,41,30.35,30.07,27,9,29,0.00
2014-11-9,59,49,34,44,37,28,84,66,38,30.07,29.76,38,12,43,0.00
2014-11-10,45,36,30,33,28,22,89,73,51,30.13,29.94,16,5,17,0.00
2014-11-11,33,26,16,23,17,4,77,68,59,30.40,30.12,24,8,24,0.00
2014-11-12,23,16,9,10,6,3,76,65,55,30.47,30.30,14,5,15,0.00
2014-11-13,22,17,14,20,14,9,94,89,68,30.30,30.10,6,2,10,0.00
2014-11-14,26,20,13,25,17,10,95,92,88,30.37,30.07,9,2,10,0.00
2014-11-15,20,13,4,15,10,1,92,88,78,30.77,30.37,10,2,11,0.05
2014-11-16,31,17,6,23,13,3,92,84,72,30.77,30.65,11,3,11,0.01
2014-11-17,33,22,10,25,17,7,94,84,67,30.67,30.44,12,4,12,0.02
2014-11-18,43,31,20,31,24,18,91,77,51,30.45,30.23,20,5,20,0.09
2014-11-19,39,32,25,36,27,22,96,81,60,30.24,30.00,20,3,22,0.06
2014-11-20,45,40,35,37,36,33,94,85,72,30.09,29.97,20,6,22,0.00
2014-11-21,44,39,36,42,37,33,95,91,84,30.00,29.58,32,12,42,0.72
2014-11-22,45,37,33,42,34,28,96,88,72,30.25,29.65,35,8,35,0.33
2014-11-23,44,39,34,32,31,27,86,74,52,30.36,30.25,30,11,35,0.01
2014-11-24,49,41,34,43,33,28,89,74,55,30.44,30.31,32,11,32,0.00
2014-11-25,53,49,46,45,43,39,90,79,68,30.35,30.28,27,11,29,0.00
2014-11-26,56,50,38,40,37,33,89,63,51,30.24,30.05,30,10,35,0.00
2014-11-27,49,46,43,43,39,32,90,77,52,30.05,29.83,38,14,46,0.26
2014-11-28,45,42,37,41,38,35,95,87,71,29.87,29.50,42,17,46,0.61
2014-11-29,39,34,25,36,26,21,94,76,53,30.06,29.51,35,8,35,0.04
2014-11-30,26,24,21,22,21,20,94,90,82,30.16,30.05,11,4,11,0.00
2014-12-1,39,36,0,37,34,0,95,92,80,30.19,30.10,21,10,23,0.16
2014-12-2,40,28,19,38,27,18,97,95,90,30.16,30.03,15,4,16,0.00
2014-12-3,26,21,18,24,20,16,96,94,93,30.06,29.97,4,1,5,0.00
2014-12-4,47,39,25,43,37,24,98,93,85,30.03,29.95,13,4,15,0.18
2014-12-5,49,39,30,42,36,29,97,90,75,30.05,29.91,16,4,17,0.01
2014-12-6,48,39,30,37,34,30,98,81,60,30.29,29.91,25,7,27,0.07
2014-12-7,50,39,31,39,34,29,94,84,65,30.28,30.13,16,5,19,0.00
2014-12-8,52,46,36,44,40,34,94,81,70,30.16,30.02,19,7,23,0.00
2014-12-9,52,48,46,45,43,41,93,82,74,30.04,29.88,25,7,30,0.03
2014-12-10,53,48,43,43,40,36,87,73,56,29.88,29.42,44,12,45,0.05
2014-12-11,52,45,40,42,38,36,92,78,59,29.58,29.18,43,12,56,0.13
2014-12-12,41,37,31,38,35,29,96,92,85,30.06,29.57,13,3,14,0.13
2014-12-13,43,33,29,32,29,26,93,83,60,30.25,30.06,15,6,16,0.00
2014-12-14,43,31,24,29,26,22,94,81,50,30.24,30.08,17,4,18,0.00
2014-12-15,34,28,26,31,27,25,97,95,89,30.10,29.96,9,2,10,0.03
2014-12-16,43,32,27,35,29,26,97,91,72,29.96,29.89,14,2,22,0.01
2014-12-17,44,34,28,36,32,27,97,92,74,30.03,29.88,19,4,19,0.01
2014-12-18,45,39,34,37,34,32,94,84,69,30.04,29.89,27,8,28,0.02
2014-12-19,44,38,35,36,34,31,94,87,66,30.03,29.90,23,7,23,0.09
2014-12-20,45,39,35,44,37,34,96,95,92,29.96,29.75,39,13,41,1.52
2014-12-21,47,44,40,45,42,38,97,94,84,30.13,29.82,21,6,24,0.31
2014-12-22,48,41,36,42,38,34,97,89,69,30.36,30.08,16,4,18,0.00
2014-12-23,52,43,38,44,40,36,94,87,72,30.35,30.02,28,10,29,0.01
2014-12-24,44,42,40,38,38,37,92,85,81,30.01,29.65,27,11,31,0.00
2014-12-25,36,33,28,30,26,24,87,74,63,30.28,30.17,23,6,24,0.01
2014-12-26,38,30,24,28,24,21,89,79,61,30.41,30.26,15,5,15,0.00
2014-12-27,40,31,24,33,26,21,91,83,70,30.40,30.18,39,13,39,0.00
2014-12-28,38,33,29,31,25,20,88,72,51,30.25,30.13,23,6,28,0.00
2014-12-29,35,23,13,32,20,9,96,91,79,30.67,30.12,37,10,37,0.00
2014-12-30,13,8,-1,9,3,-5,88,82,75,30.94,30.67,24,8,26,0.00
2014-12-31,24,10,0,14,4,-3,89,77,57,30.91,30.62,23,6,23,0.02
2015-1-1,32,18,6,22,11,2,90,72,53,30.62,30.40,13,4,15,0.01
2015-1-2,46,32,16,34,25,12,90,76,56,30.40,30.18,30,8,37,0.01